Time;durP1;ratioP1;P1;durP2;ratioP2;P2;SDS_P1;SDS_P2;PMS_P1;PMS_P2;Temp;Humidity;BMP_temperature;BMP_pressure;BME280_temperature;BME280_humidity;BME280_pressure;Samples;Min_cycle;Max_cycle;Signal;HPM_P1;HPM_P2
2023/11/04 00:00:26;;;;;;;7.73;2.47;;;;;9.00;98112.00;;;;10274804;28;20227;-70
2023/11/04 00:05:28;;;;;;;4.37;1.83;;;;;9.00;98104.00;;;;10298539;28;20271;-70
2023/11/04 00:10:29;;;;;;;3.03;2.00;;;;;9.10;98107.00;;;;10311790;28;20234;-70
2023/11/04 00:15:30;;;;;;;5.67;2.10;;;;;9.10;98110.00;;;;10313979;28;21009;-71
2023/11/04 00:20:31;;;;;;;3.10;2.43;;;;;9.10;98111.00;;;;10306728;28;20227;-70
2023/11/04 00:25:46;;;;;;;7.27;2.43;;;;;9.10;98105.00;;;;10288457;28;20219;-69
2023/11/04 00:30:48;;;;;;;3.93;2.50;;;;;9.20;98106.00;;;;10311428;28;20314;-70
2023/11/04 00:36:11;;;;;;;5.90;2.50;;;;;9.20;98109.00;;;;10306815;28;21046;-69
2023/11/04 00:41:32;;;;;;;9.03;2.83;;;;;9.20;98105.00;;;;10290103;28;20240;-72
2023/11/04 00:46:53;;;;;;;7.30;2.63;;;;;9.20;98108.00;;;;10308657;28;20228;-70
2023/11/04 00:52:14;;;;;;;4.37;2.83;;;;;9.20;98111.00;;;;10307631;28;20646;-71
2023/11/04 00:57:35;;;;;;;4.00;2.43;;;;;9.20;98102.00;;;;10311994;28;20228;-71
2023/11/04 01:02:57;;;;;;;5.23;2.40;;;;;9.20;98101.00;;;;10314637;28;20212;-70
2023/11/04 01:08:18;;;;;;;3.40;1.93;;;;;9.20;98102.00;;;;10316396;28;20286;-69
2023/11/04 01:13:39;;;;;;;4.83;2.50;;;;;9.20;98100.00;;;;10304175;28;20238;-69
2023/11/04 01:19:01;;;;;;;4.40;2.50;;;;;9.20;98100.00;;;;10317847;28;20294;-70
2023/11/04 01:24:22;;;;;;;5.47;2.23;;;;;9.20;98099.00;;;;10319391;28;20645;-70
2023/11/04 01:29:44;;;;;;;4.23;2.40;;;;;9.20;98095.00;;;;10315956;28;20262;-70
2023/11/04 01:35:05;;;;;;;3.77;2.20;;;;;9.30;98088.00;;;;10321553;28;20227;-70
2023/11/04 01:40:28;;;;;;;5.80;2.73;;;;;9.20;98095.00;;;;10318353;28;20843;-70
2023/11/04 01:46:10;;;;;;;6.60;2.80;;;;;9.20;98089.00;;;;10311813;28;20242;-71
2023/11/04 01:51:31;;;;;;;4.73;2.77;;;;;9.10;98081.00;;;;10303881;28;20371;-70
2023/11/04 01:56:53;;;;;;;3.33;2.30;;;;;9.20;98086.00;;;;10313745;28;20592;-69
2023/11/04 02:02:17;;;;;;;3.77;2.60;;;;;9.20;98075.00;;;;10315596;28;20589;-71
2023/11/04 02:07:38;;;;;;;3.70;2.47;;;;;9.10;98079.00;;;;10306881;28;20668;-72
2023/11/04 02:13:00;;;;;;;10.80;2.50;;;;;9.00;98068.00;;;;10300823;28;20846;-72
2023/11/04 02:18:22;;;;;;;7.53;2.70;;;;;9.00;98070.00;;;;10319531;28;20246;-72
2023/11/04 02:23:43;;;;;;;7.13;2.40;;;;;8.90;98060.00;;;;10302337;28;20273;-72
2023/11/04 02:29:04;;;;;;;5.07;2.73;;;;;8.90;98049.00;;;;10303363;28;20231;-72
2023/11/04 02:34:25;;;;;;;3.07;2.40;;;;;8.90;98057.00;;;;10325138;28;20228;-72
2023/11/04 02:39:46;;;;;;;6.43;2.23;;;;;9.00;98057.00;;;;10325307;28;20253;-72
2023/11/04 02:45:08;;;;;;;6.77;3.27;;;;;8.90;98052.00;;;;10311485;28;20310;-72
2023/11/04 02:50:29;;;;;;;8.50;3.37;;;;;8.80;98050.00;;;;10313359;28;20227;-71
2023/11/04 02:55:50;;;;;;;7.50;3.53;;;;;8.70;98035.00;;;;10303250;28;20581;-72
2023/11/04 03:01:11;;;;;;;8.27;3.20;;;;;8.60;98027.00;;;;10315590;28;20234;-72
2023/11/04 03:06:32;;;;;;;8.37;3.23;;;;;8.70;98024.00;;;;10313774;28;20864;-72
2023/11/04 03:11:56;;;;;;;6.47;3.30;;;;;8.70;98018.00;;;;10313188;28;20860;-72
2023/11/04 03:17:17;;;;;;;5.53;3.53;;;;;8.80;98017.00;;;;10301095;28;20230;-74
2023/11/04 03:22:38;;;;;;;10.07;3.40;;;;;8.80;98006.00;;;;10315242;28;20232;-74
2023/11/04 03:27:59;;;;;;;7.63;3.60;;;;;8.80;98003.00;;;;10314156;28;20266;-74
2023/11/04 03:33:21;;;;;;;10.00;3.60;;;;;8.80;97999.00;;;;10319118;28;20261;-75
2023/11/04 03:38:42;;;;;;;8.37;3.37;;;;;8.80;97989.00;;;;10312932;28;20228;-74
2023/11/04 03:44:03;;;;;;;8.20;3.40;;;;;8.80;97986.00;;;;10312693;28;20228;-74
2023/11/04 03:49:24;;;;;;;7.33;3.27;;;;;8.70;97979.00;;;;10320175;28;20227;-74
2023/11/04 03:54:45;;;;;;;5.07;2.80;;;;;8.70;97969.00;;;;10324251;28;20224;-75
2023/11/04 04:00:08;;;;;;;11.10;3.30;;;;;8.80;97965.00;;;;10312949;28;20227;-74
2023/11/04 04:05:32;;;;;;;7.03;2.67;;;;;8.80;97952.00;;;;10318989;28;20230;-74
2023/11/04 04:10:53;;;;;;;14.50;3.27;;;;;8.70;97940.00;;;;10313534;28;20829;-75
2023/11/04 04:16:14;;;;;;;8.00;3.17;;;;;8.70;97945.00;;;;10313085;28;20239;-74
2023/11/04 04:21:37;;;;;;;8.77;3.23;;;;;8.60;97944.00;;;;10315260;28;20247;-74
2023/11/04 04:26:58;;;;;;;7.90;2.50;;;;;8.60;97935.00;;;;10308059;28;20229;-72
2023/11/04 04:32:19;;;;;;;5.63;2.27;;;;;8.50;97932.00;;;;10315576;28;20247;-71
2023/11/04 04:37:41;;;;;;;10.97;3.07;;;;;8.40;97914.00;;;;10315648;28;20220;-72
2023/11/04 04:43:02;;;;;;;7.23;2.57;;;;;8.30;97913.00;;;;10307350;28;20223;-72
2023/11/04 04:48:23;;;;;;;11.90;2.50;;;;;8.20;97902.00;;;;10311635;28;20263;-72
2023/11/04 04:53:44;;;;;;;8.47;2.50;;;;;8.10;97890.00;;;;10320484;28;20763;-72
2023/11/04 04:59:07;;;;;;;7.03;3.13;;;;;8.00;97872.00;;;;10321799;28;20231;-72
2023/11/04 05:04:28;;;;;;;6.37;2.93;;;;;8.00;97861.00;;;;10316453;28;20228;-71
2023/11/04 05:09:49;;;;;;;9.90;2.83;;;;;7.90;97848.00;;;;10320351;28;20313;-72
2023/11/04 05:15:10;;;;;;;9.70;2.70;;;;;7.90;97850.00;;;;10312207;28;20226;-72
2023/11/04 05:20:31;;;;;;;14.10;2.80;;;;;7.80;97847.00;;;;10318082;28;20258;-72
2023/11/04 05:25:52;;;;;;;7.50;2.30;;;;;7.80;97837.00;;;;10310903;28;20227;-72
2023/11/04 05:31:13;;;;;;;11.93;3.73;;;;;7.70;97843.00;;;;10304380;28;20220;-71
2023/11/04 05:36:34;;;;;;;10.10;2.40;;;;;7.70;97840.00;;;;10298688;28;20335;-72
2023/11/04 05:41:55;;;;;;;10.37;2.40;;;;;7.70;97833.00;;;;10319147;28;20226;-72
2023/11/04 05:47:16;;;;;;;8.33;2.87;;;;;7.70;97834.00;;;;10312810;28;20297;-72
2023/11/04 05:52:38;;;;;;;11.33;2.63;;;;;7.60;97813.00;;;;10329187;28;20280;-72
2023/11/04 05:58:01;;;;;;;10.20;3.53;;;;;7.60;97808.00;;;;10308171;28;20223;-72
2023/11/04 06:03:22;;;;;;;10.77;2.30;;;;;7.60;97819.00;;;;10300602;28;20330;-72
2023/11/04 06:08:43;;;;;;;13.63;2.30;;;;;7.60;97802.00;;;;10313864;28;20231;-72
2023/11/04 06:14:04;;;;;;;6.50;2.07;;;;;7.50;97796.00;;;;10319650;28;20261;-72
2023/11/04 06:19:25;;;;;;;8.40;2.30;;;;;7.50;97786.00;;;;10318360;28;20227;-72
2023/11/04 06:24:46;;;;;;;11.23;2.37;;;;;7.50;97772.00;;;;10298777;28;20219;-72
2023/11/04 06:30:08;;;;;;;8.93;2.50;;;;;7.50;97750.00;;;;10311289;28;20227;-72
2023/11/04 06:35:29;;;;;;;10.70;2.70;;;;;7.50;97747.00;;;;10331232;28;20298;-72
2023/11/04 06:40:50;;;;;;;9.67;2.67;;;;;7.40;97744.00;;;;10313955;28;20216;-72
2023/11/04 06:46:12;;;;;;;9.57;2.10;;;;;7.30;97727.00;;;;10318034;28;20254;-70
2023/11/04 06:51:33;;;;;;;6.13;1.93;;;;;7.30;97725.00;;;;10307208;28;20239;-70
2023/11/04 06:56:34;;;;;;;7.03;2.53;;;;;7.40;97725.00;;;;10308330;28;20233;-70
2023/11/04 07:01:37;;;;;;;6.37;2.60;;;;;7.30;97698.00;;;;10307877;28;20354;-69
2023/11/04 07:06:38;;;;;;;10.43;2.30;;;;;7.40;97693.00;;;;10309621;28;20999;-70
2023/11/04 07:11:43;;;;;;;7.17;2.60;;;;;7.50;97682.00;;;;10308186;28;20740;-69
2023/11/04 07:16:44;;;;;;;8.67;2.60;;;;;7.60;97673.00;;;;10311615;28;20295;-71
2023/11/04 07:21:47;;;;;;;9.13;2.40;;;;;7.70;97656.00;;;;10302739;28;20238;-72
2023/11/04 07:26:48;;;;;;;7.47;2.50;;;;;7.90;97653.00;;;;10304514;28;20226;-70
2023/11/04 07:31:50;;;;;;;9.73;2.83;;;;;8.00;97644.00;;;;10305434;28;20224;-72
2023/11/04 07:36:51;;;;;;;8.43;2.83;;;;;8.20;97634.00;;;;10294142;28;20227;-70
2023/11/04 07:41:52;;;;;;;13.13;3.10;;;;;8.30;97631.00;;;;10308342;28;20231;-70
2023/11/04 07:46:55;;;;;;;9.13;2.47;;;;;8.50;97631.00;;;;10290460;28;20227;-71
2023/11/04 07:51:57;;;;;;;6.73;2.53;;;;;8.70;97621.00;;;;10305452;28;20266;-70
2023/11/04 07:56:59;;;;;;;13.27;2.87;;;;;8.90;97584.00;;;;10315094;28;20211;-73
2023/11/04 08:02:00;;;;;;;6.47;2.23;;;;;9.20;97566.00;;;;10324810;28;20247;-73
2023/11/04 08:07:03;;;;;;;12.73;2.33;;;;;9.50;97559.00;;;;10314172;28;20248;-73
2023/11/04 08:12:05;;;;;;;11.93;2.43;;;;;9.60;97537.00;;;;10323956;28;20232;-73
2023/11/04 08:17:06;;;;;;;9.10;2.20;;;;;9.60;97515.00;;;;10327393;28;20305;-72
2023/11/04 08:22:09;;;;;;;11.67;2.27;;;;;9.70;97521.00;;;;10315598;28;20247;-73
2023/11/04 08:27:11;;;;;;;5.53;1.93;;;;;9.70;97513.00;;;;10308623;28;20925;-72
2023/11/04 08:32:12;;;;;;;7.30;1.70;;;;;9.80;97500.00;;;;10314915;28;20899;-72
2023/11/04 08:37:13;;;;;;;7.30;1.90;;;;;9.90;97502.00;;;;10314435;28;20227;-72
2023/11/04 08:42:15;;;;;;;4.23;1.73;;;;;10.00;97499.00;;;;10315231;28;20234;-72
2023/11/04 08:47:16;;;;;;;6.00;1.93;;;;;9.90;97488.00;;;;10312768;28;20223;-72
2023/11/04 08:52:18;;;;;;;7.07;1.90;;;;;9.90;97500.00;;;;10322986;28;20710;-73
2023/11/04 08:57:20;;;;;;;10.63;1.87;;;;;9.80;97491.00;;;;10323250;28;20310;-72
2023/11/04 09:02:21;;;;;;;7.70;1.67;;;;;9.60;97486.00;;;;10310388;28;20228;-75
2023/11/04 09:07:23;;;;;;;8.07;1.70;;;;;9.30;97499.00;;;;10315153;28;20235;-76
2023/11/04 09:12:24;;;;;;;4.13;1.50;;;;;9.00;97480.00;;;;10315820;28;20224;-75
2023/11/04 09:17:25;;;;;;;11.03;2.13;;;;;8.80;97449.00;;;;10312289;28;20318;-75
2023/11/04 09:22:26;;;;;;;5.57;1.40;;;;;8.70;97438.00;;;;10298796;28;20228;-75
2023/11/04 09:27:28;;;;;;;5.53;1.57;;;;;8.60;97407.00;;;;10309415;28;20251;-76
2023/11/04 09:32:29;;;;;;;7.13;2.13;;;;;8.60;97389.00;;;;10317017;28;20314;-77
2023/11/04 09:37:30;;;;;;;10.97;2.90;;;;;8.50;97375.00;;;;10302895;28;20243;-75
2023/11/04 09:42:31;;;;;;;5.97;2.17;;;;;8.60;97361.00;;;;10309299;28;20281;-77
2023/11/04 09:47:33;;;;;;;5.00;1.77;;;;;8.70;97346.00;;;;10310897;28;20598;-77
2023/11/04 09:52:38;;;;;;;4.57;1.80;;;;;8.60;97322.00;;;;10311165;28;20226;-77
2023/11/04 09:57:40;;;;;;;4.77;1.33;;;;;8.60;97311.00;;;;10284461;28;20278;-78
2023/11/04 10:02:42;;;;;;;5.93;2.13;;;;;8.60;97293.00;;;;10307008;28;20255;-76
2023/11/04 10:07:43;;;;;;;6.97;1.93;;;;;8.70;97260.00;;;;10330838;28;20238;-80
2023/11/04 10:12:45;;;;;;;8.93;2.13;;;;;8.70;97249.00;;;;10318611;28;20235;-70
2023/11/04 10:17:46;;;;;;;11.07;1.43;;;;;8.90;97217.00;;;;10304950;28;20227;-70
2023/11/04 10:22:48;;;;;;;4.13;1.87;;;;;9.20;97195.00;;;;10301396;28;20216;-70
2023/11/04 10:27:49;;;;;;;6.20;1.60;;;;;9.20;97166.00;;;;10328939;28;20823;-71
2023/11/04 10:32:53;;;;;;;9.37;2.20;;;;;9.30;97148.00;;;;10310589;28;20228;-70
2023/11/04 10:37:58;;;;;;;6.17;1.53;;;;;9.30;97118.00;;;;10307433;28;20901;-70
2023/11/04 10:43:14;;;;;;;8.77;2.17;;;;;9.60;97084.00;;;;10308485;28;20238;-70
2023/11/04 10:48:23;;;;;;;6.27;1.40;;;;;9.60;97061.00;;;;10312433;28;20351;-70
2023/11/04 10:53:33;;;;;;;4.87;1.20;;;;;9.50;97043.00;;;;10316131;28;20611;-71
2023/11/04 10:58:45;;;;;;;5.87;1.37;;;;;9.40;97032.00;;;;10302649;28;20224;-70
2023/11/04 11:03:49;;;;;;;5.00;1.43;;;;;9.40;97003.00;;;;10291437;28;20223;-70
2023/11/04 11:08:51;;;;;;;6.30;1.30;;;;;9.80;96986.00;;;;10320352;28;20285;-71
2023/11/04 11:13:55;;;;;;;2.90;1.10;;;;;9.90;96960.00;;;;10310500;28;20216;-70
2023/11/04 11:19:08;;;;;;;4.03;1.10;;;;;9.80;96929.00;;;;10315433;28;20890;-71
2023/11/04 11:24:09;;;;;;;5.33;1.00;;;;;9.90;96910.00;;;;10303636;28;20751;-73
2023/11/04 11:29:18;;;;;;;3.80;0.97;;;;;10.00;96894.00;;;;10316114;28;20837;-72
2023/11/04 11:34:19;;;;;;;3.70;0.93;;;;;9.50;96881.00;;;;10300090;28;20339;-72
2023/11/04 11:39:20;;;;;;;2.40;1.10;;;;;9.30;96862.00;;;;10299473;28;20225;-72
2023/11/04 11:44:22;;;;;;;1.43;0.70;;;;;9.50;96833.00;;;;10304125;28;20832;-72
2023/11/04 11:49:24;;;;;;;1.60;0.83;;;;;9.70;96834.00;;;;10303123;28;20682;-73
2023/11/04 11:54:26;;;;;;;1.97;0.87;;;;;9.80;96834.00;;;;10308938;28;20219;-72
2023/11/04 11:59:28;;;;;;;1.37;1.10;;;;;9.80;96821.00;;;;10306733;28;20223;-73
2023/11/04 12:04:29;;;;;;;2.60;0.80;;;;;9.90;96821.00;;;;10300305;28;20948;-73
2023/11/04 12:09:31;;;;;;;2.57;0.60;;;;;10.20;96815.00;;;;10304081;28;20235;-73
2023/11/04 12:14:34;;;;;;;2.33;0.83;;;;;10.20;96814.00;;;;10311873;28;20227;-73
2023/11/04 12:19:35;;;;;;;0.60;0.60;;;;;10.30;96782.00;;;;10298396;28;20259;-73
2023/11/04 12:24:36;;;;;;;0.30;0.30;;;;;10.40;96765.00;;;;10306875;28;20354;-73
2023/11/04 12:29:39;;;;;;;0.77;0.60;;;;;10.70;96758.00;;;;10310122;28;20235;-72
2023/11/04 12:34:49;;;;;;;1.50;0.40;;;;;11.00;96739.00;;;;10301567;28;21037;-72
2023/11/04 12:39:50;;;;;;;0.70;0.50;;;;;11.70;96735.00;;;;10300498;28;20301;-73
2023/11/04 12:44:54;;;;;;;0.47;0.47;;;;;11.60;96723.00;;;;10296135;28;20220;-73
2023/11/04 12:49:58;;;;;;;1.43;0.30;;;;;11.40;96718.00;;;;10302272;28;20228;-73
2023/11/04 12:55:01;;;;;;;0.70;0.50;;;;;11.30;96695.00;;;;10306291;28;20827;-73
2023/11/04 13:00:04;;;;;;;1.77;0.50;;;;;11.30;96701.00;;;;10309786;28;20215;-72
2023/11/04 13:05:07;;;;;;;1.77;0.50;;;;;11.20;96702.00;;;;10311847;28;20338;-72
2023/11/04 13:10:09;;;;;;;0.40;0.40;;;;;11.50;96696.00;;;;10334699;28;20279;-72
2023/11/04 13:15:10;;;;;;;1.00;0.40;;;;;11.80;96692.00;;;;10317531;28;20737;-72
2023/11/04 13:20:11;;;;;;;0.40;0.40;;;;;11.50;96693.00;;;;10326914;28;20329;-73
2023/11/04 13:25:12;;;;;;;0.57;0.57;;;;;11.50;96689.00;;;;10314014;28;20874;-72
2023/11/04 13:30:16;;;;;;;0.30;0.30;;;;;11.80;96677.00;;;;10314277;28;20251;-72
2023/11/04 13:35:17;;;;;;;0.67;0.67;;;;;11.70;96678.00;;;;10310497;28;20255;-73
2023/11/04 13:40:21;;;;;;;1.03;0.50;;;;;11.60;96667.00;;;;10302264;28;20771;-73
2023/11/04 13:45:23;;;;;;;3.22;0.47;;;;;11.40;96659.00;;;;10326745;28;20223;-71
2023/11/04 13:50:24;;;;;;;0.40;0.40;;;;;11.30;96665.00;;;;10319754;28;20310;-71
2023/11/04 13:55:25;;;;;;;3.37;0.60;;;;;11.40;96668.00;;;;10308697;28;20228;-72
2023/11/04 14:00:26;;;;;;;1.53;0.50;;;;;11.40;96667.00;;;;10313562;28;20306;-71
2023/11/04 14:05:28;;;;;;;1.60;0.50;;;;;11.80;96663.00;;;;10294050;28;20239;-72
2023/11/04 14:10:29;;;;;;;2.90;0.83;;;;;12.10;96649.00;;;;10297479;28;20234;-71
2023/11/04 14:15:30;;;;;;;1.43;0.57;;;;;11.80;96644.00;;;;10307429;28;20314;-71
2023/11/04 14:20:34;;;;;;;1.10;0.63;;;;;11.70;96641.00;;;;10306123;28;20228;-71
2023/11/04 14:25:35;;;;;;;1.23;0.60;;;;;11.80;96626.00;;;;10304714;28;20232;-71
2023/11/04 14:30:36;;;;;;;5.87;1.63;;;;;12.70;96617.00;;;;10315687;28;20224;-71
2023/11/04 14:35:37;;;;;;;3.57;0.93;;;;;12.20;96612.00;;;;10309211;28;20653;-71
2023/11/04 14:40:39;;;;;;;4.30;0.90;;;;;12.00;96617.00;;;;10299398;28;20331;-71
2023/11/04 14:45:40;;;;;;;4.60;1.00;;;;;12.00;96625.00;;;;10300168;28;20238;-70
2023/11/04 14:50:42;;;;;;;6.05;1.10;;;;;12.10;96617.00;;;;10309351;28;20236;-71
2023/11/04 14:55:43;;;;;;;2.38;0.90;;;;;12.40;96617.00;;;;10310706;28;20222;-72
2023/11/04 15:00:45;;;;;;;5.07;1.00;;;;;12.60;96610.00;;;;10304042;28;20869;-71
2023/11/04 15:05:46;;;;;;;4.38;1.13;;;;;12.40;96615.00;;;;10307805;28;20220;-73
2023/11/04 15:10:48;;;;;;;1.85;0.82;;;;;11.70;96604.00;;;;10307541;28;20767;-74
2023/11/04 15:15:49;;;;;;;2.78;1.13;;;;;11.50;96601.00;;;;10299937;28;20227;-73
2023/11/04 15:20:50;;;;;;;5.03;1.10;;;;;11.60;96607.00;;;;10303463;28;20254;-73
2023/11/04 15:25:51;;;;;;;5.38;1.17;;;;;11.50;96621.00;;;;10318420;28;20289;-74
2023/11/04 15:30:52;;;;;;;6.20;1.50;;;;;11.40;96611.00;;;;10283606;28;20254;-73
2023/11/04 15:35:54;;;;;;;3.93;1.10;;;;;11.50;96616.00;;;;10270840;28;20228;-73
2023/11/04 15:40:55;;;;;;;6.47;1.13;;;;;11.80;96610.00;;;;10294451;28;20278;-73
2023/11/04 15:45:56;;;;;;;8.47;2.00;;;;;11.70;96617.00;;;;10299673;28;20223;-73
2023/11/04 15:50:57;;;;;;;4.65;2.00;;;;;11.40;96611.00;;;;10290093;28;20224;-73
2023/11/04 15:55:59;;;;;;;6.03;1.33;;;;;11.30;96607.00;;;;10297660;28;20227;-73
2023/11/04 16:01:01;;;;;;;3.70;1.37;;;;;11.30;96605.00;;;;10297437;28;20258;-73
2023/11/04 16:06:02;;;;;;;6.40;1.60;;;;;11.20;96600.00;;;;10313019;28;20283;-73
2023/11/04 16:11:04;;;;;;;3.23;1.30;;;;;11.20;96605.00;;;;10315552;28;20243;-73
2023/11/04 16:16:05;;;;;;;5.60;1.40;;;;;11.20;96616.00;;;;10305381;28;20234;-70
2023/11/04 16:21:06;;;;;;;5.83;1.07;;;;;11.10;96596.00;;;;10301505;28;20220;-70
2023/11/04 16:26:12;;;;;;;9.40;1.40;;;;;11.00;96598.00;;;;10318699;28;20222;-71
2023/11/04 16:31:23;;;;;;;8.67;1.67;;;;;10.80;96595.00;;;;10307523;28;20666;-70
2023/11/04 16:36:24;;;;;;;4.80;1.60;;;;;10.70;96591.00;;;;10306633;28;20928;-71
2023/11/04 16:41:26;;;;;;;6.27;2.17;;;;;10.70;96589.00;;;;10304110;28;21290;-69
2023/11/04 16:46:29;;;;;;;6.47;1.73;;;;;10.60;96587.00;;;;10283923;28;20232;-71
2023/11/04 16:51:31;;;;;;;11.83;1.77;;;;;10.60;96592.00;;;;10318841;28;20232;-70
2023/11/04 16:56:32;;;;;;;14.67;3.07;;;;;10.50;96602.00;;;;10325642;28;20320;-70
2023/11/04 17:01:33;;;;;;;10.47;2.60;;;;;10.50;96606.00;;;;10309006;28;20224;-70
2023/11/04 17:06:35;;;;;;;11.03;2.40;;;;;10.40;96608.00;;;;10306367;28;20211;-69
2023/11/04 17:11:37;;;;;;;20.07;2.93;;;;;10.50;96619.00;;;;10303680;28;20224;-70
2023/11/04 17:16:38;;;;;;;12.70;2.97;;;;;10.50;96629.00;;;;10314380;28;20248;-71
2023/11/04 17:21:39;;;;;;;11.63;3.10;;;;;10.70;96621.00;;;;10292944;28;20373;-69
2023/11/04 17:26:40;;;;;;;10.90;2.77;;;;;10.80;96635.00;;;;10315616;28;20224;-73
2023/11/04 17:31:41;;;;;;;15.53;3.07;;;;;10.80;96647.00;;;;10317527;28;20718;-73
2023/11/04 17:36:42;;;;;;;12.73;3.77;;;;;10.70;96665.00;;;;10305495;28;20231;-72
2023/11/04 17:41:44;;;;;;;13.57;3.00;;;;;10.60;96661.00;;;;10297097;28;20251;-72
2023/11/04 17:46:45;;;;;;;17.80;2.93;;;;;10.50;96659.00;;;;10306814;28;20277;-73
2023/11/04 17:51:46;;;;;;;13.63;2.87;;;;;10.40;96651.00;;;;10318988;28;20693;-72
2023/11/04 17:56:47;;;;;;;11.17;3.07;;;;;10.10;96642.00;;;;10303727;28;20887;-73
2023/11/04 18:01:48;;;;;;;12.80;2.93;;;;;10.00;96651.00;;;;10319192;28;20224;-73
2023/11/04 18:06:50;;;;;;;15.43;2.80;;;;;9.90;96656.00;;;;10335205;28;20216;-72
2023/11/04 18:11:51;;;;;;;7.67;2.30;;;;;9.90;96671.00;;;;10294455;28;20312;-72
2023/11/04 18:16:52;;;;;;;16.03;2.73;;;;;9.70;96671.00;;;;10292774;28;20319;-73
2023/11/04 18:21:54;;;;;;;8.13;2.00;;;;;9.60;96677.00;;;;10309225;28;20226;-72
2023/11/04 18:26:55;;;;;;;13.40;2.13;;;;;9.50;96681.00;;;;10298535;28;20243;-72
2023/11/04 18:31:56;;;;;;;12.57;2.43;;;;;9.40;96677.00;;;;10295349;28;21030;-73
2023/11/04 18:36:58;;;;;;;7.43;2.20;;;;;9.30;96670.00;;;;10305665;28;20294;-73
2023/11/04 18:42:00;;;;;;;8.17;2.20;;;;;9.30;96672.00;;;;10313850;28;20379;-73
2023/11/04 18:47:02;;;;;;;6.80;2.17;;;;;9.20;96662.00;;;;10320449;28;20224;-73
2023/11/04 18:52:07;;;;;;;6.90;2.00;;;;;9.10;96660.00;;;;10315150;28;20733;-73
2023/11/04 18:57:10;;;;;;;11.87;2.43;;;;;9.00;96661.00;;;;10313004;28;20228;-73
2023/11/04 19:02:12;;;;;;;11.27;2.50;;;;;9.00;96655.00;;;;10301369;28;20891;-73
2023/11/04 19:07:13;;;;;;;11.60;2.37;;;;;9.10;96663.00;;;;10316591;28;20238;-73
2023/11/04 19:12:14;;;;;;;13.37;2.37;;;;;9.00;96664.00;;;;10312015;28;20222;-73
2023/11/04 19:17:15;;;;;;;14.67;2.90;;;;;9.00;96665.00;;;;10315930;28;20304;-73
2023/11/04 19:22:16;;;;;;;10.60;3.40;;;;;9.00;96657.00;;;;10287979;28;20239;-73
2023/11/04 19:27:18;;;;;;;12.23;2.83;;;;;9.10;96659.00;;;;10295415;28;20219;-73
2023/11/04 19:32:19;;;;;;;16.20;3.83;;;;;9.00;96656.00;;;;10317506;28;20232;-72
2023/11/04 19:37:20;;;;;;;18.33;2.80;;;;;9.00;96661.00;;;;10325445;28;20680;-73
2023/11/04 19:42:21;;;;;;;12.70;2.97;;;;;9.10;96664.00;;;;10310308;28;20275;-72
2023/11/04 19:47:23;;;;;;;14.13;2.63;;;;;9.10;96662.00;;;;10327557;28;20220;-72
2023/11/04 19:52:24;;;;;;;9.60;2.97;;;;;9.10;96658.00;;;;10308248;28;20228;-71
2023/11/04 19:57:25;;;;;;;14.10;3.03;;;;;9.20;96663.00;;;;10318943;28;20455;-72
2023/11/04 20:02:26;;;;;;;12.47;2.77;;;;;9.30;96673.00;;;;10316151;28;20223;-72
2023/11/04 20:07:28;;;;;;;13.43;3.23;;;;;9.30;96663.00;;;;10312379;28;20224;-72
2023/11/04 20:12:29;;;;;;;15.43;3.03;;;;;9.20;96670.00;;;;10310033;28;20232;-72
2023/11/04 20:17:30;;;;;;;10.03;2.60;;;;;9.20;96660.00;;;;10315275;28;20277;-72
2023/11/04 20:22:32;;;;;;;12.10;3.30;;;;;9.20;96673.00;;;;10322773;28;20231;-72
2023/11/04 20:27:34;;;;;;;12.63;2.40;;;;;9.20;96680.00;;;;10309602;28;20299;-71
2023/11/04 20:32:35;;;;;;;20.33;3.00;;;;;9.20;96679.00;;;;10314833;28;20255;-72
2023/11/04 20:37:36;;;;;;;16.13;3.13;;;;;9.20;96684.00;;;;10310756;28;21086;-72
2023/11/04 20:42:38;;;;;;;9.43;3.23;;;;;9.30;96680.00;;;;10302346;28;20312;-72
2023/11/04 20:47:39;;;;;;;11.83;3.30;;;;;9.30;96676.00;;;;10311510;28;20318;-72
2023/11/04 20:52:40;;;;;;;13.23;2.93;;;;;9.30;96677.00;;;;10313830;28;20224;-72
2023/11/04 20:57:41;;;;;;;8.97;2.60;;;;;9.30;96660.00;;;;10312558;28;20238;-72
2023/11/04 21:02:46;;;;;;;17.23;2.93;;;;;9.40;96672.00;;;;10307032;28;20278;-72
2023/11/04 21:07:47;;;;;;;15.30;3.23;;;;;9.50;96667.00;;;;10316577;28;20224;-72
2023/11/04 21:12:49;;;;;;;15.40;2.87;;;;;9.60;96667.00;;;;10333254;28;20230;-72
2023/11/04 21:17:53;;;;;;;13.10;2.70;;;;;9.60;96655.00;;;;10323204;28;20621;-72
2023/11/04 21:22:55;;;;;;;9.37;2.70;;;;;9.60;96658.00;;;;10314795;28;20232;-72
2023/11/04 21:27:56;;;;;;;13.40;2.97;;;;;9.60;96655.00;;;;10319724;28;20219;-72
2023/11/04 21:32:57;;;;;;;18.53;3.27;;;;;9.60;96644.00;;;;10316111;28;20306;-72
2023/11/04 21:37:58;;;;;;;14.50;3.27;;;;;9.60;96646.00;;;;10303128;28;20220;-72
2023/11/04 21:42:59;;;;;;;12.53;2.93;;;;;9.50;96632.00;;;;10300472;28;20270;-72
2023/11/04 21:48:01;;;;;;;16.47;3.07;;;;;9.50;96634.00;;;;10316981;28;20781;-72
2023/11/04 21:53:02;;;;;;;14.10;3.00;;;;;9.60;96634.00;;;;10313020;28;20233;-72
2023/11/04 21:58:03;;;;;;;13.57;2.77;;;;;9.60;96635.00;;;;10319417;28;20602;-72
2023/11/04 22:03:04;;;;;;;12.67;2.87;;;;;9.60;96629.00;;;;10320421;28;20230;-72
2023/11/04 22:08:06;;;;;;;12.07;3.13;;;;;9.60;96615.00;;;;10316197;28;20841;-72
2023/11/04 22:13:07;;;;;;;13.23;3.20;;;;;9.50;96630.00;;;;10317719;28;20947;-71
2023/11/04 22:18:08;;;;;;;9.30;2.87;;;;;9.40;96611.00;;;;10315941;28;20215;-72
2023/11/04 22:23:09;;;;;;;12.73;2.50;;;;;9.30;96618.00;;;;10327561;28;20220;-72
2023/11/04 22:28:11;;;;;;;12.83;3.23;;;;;9.20;96614.00;;;;10312362;28;20362;-72
2023/11/04 22:33:12;;;;;;;13.00;2.20;;;;;9.30;96605.00;;;;10316500;28;20238;-71
2023/11/04 22:38:13;;;;;;;10.03;2.73;;;;;9.40;96610.00;;;;10293417;28;20254;-72
2023/11/04 22:43:15;;;;;;;9.30;2.50;;;;;9.50;96594.00;;;;10293128;28;20299;-72
2023/11/04 22:48:16;;;;;;;11.67;2.30;;;;;9.60;96600.00;;;;10314874;28;20281;-72
2023/11/04 22:53:17;;;;;;;13.03;2.13;;;;;9.70;96586.00;;;;10293861;28;20894;-72
2023/11/04 22:58:18;;;;;;;13.60;2.07;;;;;9.80;96589.00;;;;10310267;28;20302;-72
2023/11/04 23:03:19;;;;;;;9.33;2.20;;;;;9.80;96591.00;;;;10313400;28;20231;-72
2023/11/04 23:08:21;;;;;;;10.80;2.20;;;;;9.90;96581.00;;;;10300752;28;20220;-72
2023/11/04 23:13:22;;;;;;;15.57;2.80;;;;;9.90;96573.00;;;;10316495;28;20232;-72
2023/11/04 23:18:23;;;;;;;12.90;2.57;;;;;10.00;96580.00;;;;10297335;28;20281;-72
2023/11/04 23:23:24;;;;;;;11.50;3.00;;;;;10.00;96565.00;;;;10301281;28;20262;-72
2023/11/04 23:28:25;;;;;;;14.57;2.40;;;;;10.00;96564.00;;;;10322007;28;20303;-72
2023/11/04 23:33:31;;;;;;;12.23;2.10;;;;;9.90;96551.00;;;;10308895;28;20236;-72
2023/11/04 23:38:32;;;;;;;16.13;3.17;;;;;9.90;96552.00;;;;10312654;28;20232;-72
2023/11/04 23:43:33;;;;;;;11.07;2.60;;;;;9.80;96543.00;;;;10317726;28;20318;-72
2023/11/04 23:48:34;;;;;;;10.17;2.20;;;;;9.60;96543.00;;;;10317046;28;20309;-73
2023/11/04 23:53:35;;;;;;;13.57;3.07;;;;;9.50;96525.00;;;;10314511;28;20304;-72
2023/11/04 23:58:36;;;;;;;12.57;2.30;;;;;9.50;96525.00;;;;10325868;28;20290;-72
